< < Back
Terminal Aerodrome Forecast


Current Version              Previous Versions:   1  2  3  4  5  6  7  8  9  

Terminal Aerodrome Forecast

239
FTUS42 KTAE 301000 AAB
TAFVLD
TAF AMD
KVLD 301052Z 3011/3106 VRB05KT P6SM SCT013
     FM301300 36006KT P6SM SCT030 SCT250
     FM310300 00000KT P6SM SCT250=

Latest METAR

697
SAUS70 KWBC 301400 RRJ
MTRVLD
METAR KVLD 301353Z 01006KT 10SM BKN095 17/08 A3003 RMK AO2 SLP175
T01720078


USA.gov is the U.S. government's official web portal to all federal, state and local government web resources and services.